Time;durP1;ratioP1;P1;durP2;ratioP2;P2;SDS_P1;SDS_P2;PMS_P1;PMS_P2;Temp;Humidity;BMP_temperature;BMP_pressure;BME280_temperature;BME280_humidity;BME280_pressure;Samples;Min_cycle;Max_cycle;Signal;HPM_P1;HPM_P2
2021/03/16 00:00:57;;;;;;;26.73;13.70;;;6.30;65.00;;;;;;4971421;28;20506;-70
2021/03/16 00:03:22;;;;;;;23.50;13.67;;;6.30;65.10;;;;;;4973385;28;20046;-70
2021/03/16 00:05:48;;;;;;;21.77;13.93;;;6.30;65.00;;;;;;4973111;28;20023;-71
2021/03/16 00:08:14;;;;;;;23.47;14.57;;;6.30;64.90;;;;;;4972424;28;20114;-78
2021/03/16 00:10:40;;;;;;;22.30;13.60;;;6.20;64.90;;;;;;4973502;28;20038;-70
2021/03/16 00:13:06;;;;;;;26.83;13.30;;;6.20;65.70;;;;;;4972979;28;20037;-70
2021/03/16 00:15:31;;;;;;;18.57;11.73;;;6.20;65.40;;;;;;4973149;28;20030;-70
2021/03/16 00:17:57;;;;;;;18.80;12.37;;;6.20;65.80;;;;;;4974508;28;20101;-70
2021/03/16 00:20:23;;;;;;;22.03;12.63;;;6.20;65.20;;;;;;4973228;28;20023;-70
2021/03/16 00:22:49;;;;;;;17.23;11.57;;;6.10;65.00;;;;;;4973343;28;20070;-79
2021/03/16 00:25:16;;;;;;;18.10;11.37;;;6.10;64.60;;;;;;4972925;28;20030;-70
2021/03/16 00:27:42;;;;;;;20.20;12.90;;;6.10;64.60;;;;;;4972867;28;20041;-70
2021/03/16 00:30:08;;;;;;;23.50;13.63;;;6.10;64.50;;;;;;4970969;28;20415;-70
2021/03/16 00:32:34;;;;;;;20.17;12.57;;;6.00;64.00;;;;;;4971472;28;20035;-71
2021/03/16 00:35:00;;;;;;;22.60;12.27;;;6.00;63.70;;;;;;4971189;28;20468;-70
2021/03/16 00:37:25;;;;;;;18.60;11.80;;;6.00;63.50;;;;;;4972154;28;20113;-70
2021/03/16 00:39:52;;;;;;;21.83;12.47;;;5.90;64.60;;;;;;4972714;28;20125;-70
2021/03/16 00:42:18;;;;;;;21.03;12.80;;;5.90;64.70;;;;;;4972602;28;20071;-70
2021/03/16 00:44:43;;;;;;;22.97;12.17;;;5.90;63.90;;;;;;4972577;28;20510;-70
2021/03/16 00:47:09;;;;;;;22.17;11.97;;;5.80;63.50;;;;;;4973459;28;20081;-70
2021/03/16 00:49:35;;;;;;;18.40;11.13;;;5.80;63.60;;;;;;4972863;28;20031;-70
2021/03/16 00:52:01;;;;;;;18.27;11.10;;;5.70;63.20;;;;;;4972476;28;20022;-70
2021/03/16 00:54:27;;;;;;;22.33;11.77;;;5.70;63.40;;;;;;4972484;28;20033;-70
2021/03/16 00:56:53;;;;;;;19.10;11.20;;;5.60;63.80;;;;;;4972583;28;20511;-70
2021/03/16 00:59:18;;;;;;;20.20;11.40;;;5.50;64.10;;;;;;4971753;28;20034;-79
2021/03/16 01:01:44;;;;;;;17.63;11.33;;;5.50;64.40;;;;;;4972027;28;20129;-71
2021/03/16 01:04:10;;;;;;;16.63;11.67;;;5.50;64.60;;;;;;4971412;28;20034;-70
2021/03/16 01:06:36;;;;;;;17.07;10.73;;;5.50;64.90;;;;;;4971963;28;20027;-70
2021/03/16 01:09:02;;;;;;;19.57;10.83;;;5.50;64.70;;;;;;4971857;28;20057;-70
2021/03/16 01:11:27;;;;;;;19.70;10.83;;;5.40;65.20;;;;;;4971928;28;20050;-70
2021/03/16 01:13:53;;;;;;;16.90;10.40;;;5.40;65.10;;;;;;4971848;28;20452;-70
2021/03/16 01:16:19;;;;;;;19.70;10.50;;;5.40;65.40;;;;;;4972208;28;20418;-70
2021/03/16 01:18:45;;;;;;;17.20;10.30;;;5.40;65.70;;;;;;4971582;28;20491;-70
2021/03/16 01:21:10;;;;;;;13.43;8.57;;;5.40;66.10;;;;;;4972735;28;20039;-70
2021/03/16 01:23:36;;;;;;;15.17;9.67;;;5.40;66.90;;;;;;4972560;28;20019;-70
2021/03/16 01:26:06;;;;;;;14.90;8.70;;;5.40;66.50;;;;;;4971990;28;20035;-70
2021/03/16 01:28:32;;;;;;;15.27;9.53;;;5.40;66.50;;;;;;4971566;28;20584;-70
2021/03/16 01:31:00;;;;;;;15.83;10.07;;;5.40;66.50;;;;;;4972583;28;20027;-70
2021/03/16 01:33:25;;;;;;;16.73;10.27;;;5.40;65.20;;;;;;4972310;28;20031;-70
2021/03/16 01:35:51;;;;;;;15.17;9.77;;;5.40;64.50;;;;;;4971706;28;20031;-70
2021/03/16 01:38:17;;;;;;;17.03;10.07;;;5.30;64.40;;;;;;4972140;28;20475;-70
2021/03/16 01:40:43;;;;;;;19.90;10.80;;;5.30;64.30;;;;;;4980759;28;20034;-70
2021/03/16 01:43:15;;;;;;;16.03;10.20;;;5.20;64.20;;;;;;4990996;28;20030;-70
2021/03/16 01:45:43;;;;;;;18.13;10.02;;;5.10;64.20;;;;;;4990698;28;20041;-70
2021/03/16 01:48:10;;;;;;;20.73;10.10;;;5.10;64.30;;;;;;4992030;28;20210;-70
2021/03/16 01:50:36;;;;;;;16.67;9.80;;;5.10;64.70;;;;;;4991269;28;20034;-74
2021/03/16 01:53:03;;;;;;;18.23;9.67;;;5.00;64.70;;;;;;4991184;28;20419;-70
2021/03/16 01:55:30;;;;;;;17.77;10.30;;;5.00;64.60;;;;;;4990942;28;20422;-70
2021/03/16 01:57:57;;;;;;;13.80;9.17;;;5.00;64.40;;;;;;4989522;28;20335;-70
2021/03/16 02:00:24;;;;;;;19.10;9.70;;;4.90;64.40;;;;;;4988952;28;20038;-70
2021/03/16 02:02:50;;;;;;;17.40;9.17;;;5.00;64.60;;;;;;4988300;28;20039;-70
2021/03/16 02:05:16;;;;;;;14.83;9.40;;;5.00;64.50;;;;;;4989347;28;20045;-70
2021/03/16 02:07:51;;;;;;;18.03;9.43;;;4.90;65.10;;;;;;4990324;28;20026;-70
2021/03/16 02:10:21;;;;;;;16.90;9.47;;;4.90;65.20;;;;;;4990512;28;20031;-70
2021/03/16 02:13:05;;;;;;;17.17;8.73;;;4.90;65.00;;;;;;4989911;28;20498;-70
2021/03/16 02:15:35;;;;;;;13.73;8.37;;;4.90;65.00;;;;;;4995042;28;20041;-71
2021/03/16 02:18:30;;;;;;;17.40;8.93;;;4.90;65.90;;;;;;4994216;28;20018;-70
2021/03/16 02:21:05;;;;;;;13.83;8.80;;;4.90;65.20;;;;;;4994572;28;20046;-70
2021/03/16 02:23:49;;;;;;;16.27;9.07;;;4.90;65.20;;;;;;4994075;28;20022;-70
2021/03/16 02:26:25;;;;;;;13.97;8.10;;;4.90;65.20;;;;;;4994319;28;20018;-71
2021/03/16 02:29:25;;;;;;;15.30;8.20;;;4.90;65.10;;;;;;4993985;28;20026;-70
2021/03/16 02:32:06;;;;;;;14.43;8.83;;;4.90;65.20;;;;;;4993497;28;20038;-70
2021/03/16 02:34:34;;;;;;;13.93;8.37;;;4.90;65.70;;;;;;5025115;28;20027;-70
2021/03/16 02:37:03;;;;;;;12.60;7.90;;;4.90;66.40;;;;;;4995437;28;20027;-70
2021/03/16 02:39:31;;;;;;;14.53;8.53;;;4.80;66.30;;;;;;5025988;28;20022;-70
2021/03/16 02:41:59;;;;;;;14.10;8.40;;;4.80;65.70;;;;;;4994420;28;20397;-70
2021/03/16 02:44:25;;;;;;;19.07;8.43;;;4.80;66.00;;;;;;4994102;28;20019;-70
2021/03/16 02:46:53;;;;;;;14.47;7.83;;;4.80;65.60;;;;;;4994562;28;20046;-77
2021/03/16 02:49:20;;;;;;;13.60;7.53;;;4.80;65.50;;;;;;4995389;28;20443;-70
2021/03/16 02:51:55;;;;;;;12.97;7.80;;;4.80;65.40;;;;;;4994324;28;20114;-71
2021/03/16 02:54:21;;;;;;;10.57;7.13;;;4.80;65.30;;;;;;4993988;28;20046;-70
2021/03/16 02:56:51;;;;;;;15.57;7.13;;;4.80;65.20;;;;;;4993725;28;20387;-70
2021/03/16 02:59:18;;;;;;;12.60;6.87;;;4.80;65.20;;;;;;4993524;28;20073;-70
2021/03/16 03:01:46;;;;;;;12.00;7.33;;;4.80;65.40;;;;;;4993332;28;20455;-74
2021/03/16 03:04:13;;;;;;;12.17;6.27;;;4.70;65.30;;;;;;4993921;28;20034;-70
2021/03/16 03:06:40;;;;;;;12.63;6.43;;;4.70;65.70;;;;;;4993466;28;20888;-70
2021/03/16 03:09:09;;;;;;;11.50;6.40;;;4.70;65.90;;;;;;4993167;28;20096;-70
2021/03/16 03:11:35;;;;;;;10.50;6.00;;;4.70;66.10;;;;;;4993647;28;20030;-70
2021/03/16 03:14:02;;;;;;;12.90;6.60;;;4.70;65.70;;;;;;4993621;28;20038;-69
2021/03/16 03:16:28;;;;;;;11.67;6.43;;;4.70;65.60;;;;;;4993163;28;20042;-70
2021/03/16 03:18:55;;;;;;;9.87;5.70;;;4.60;65.50;;;;;;4993150;28;20050;-70
2021/03/16 03:21:39;;;;;;;11.70;6.10;;;4.60;65.80;;;;;;4993978;28;20493;-70
2021/03/16 03:24:08;;;;;;;13.07;6.53;;;4.60;65.70;;;;;;4993478;28;20061;-71
2021/03/16 03:26:43;;;;;;;13.47;6.37;;;4.60;66.20;;;;;;4992988;28;20022;-70
2021/03/16 03:29:13;;;;;;;11.90;5.97;;;4.60;65.90;;;;;;4993516;28;20038;-70
2021/03/16 03:31:43;;;;;;;12.10;6.10;;;4.60;65.90;;;;;;4993270;28;20019;-70
2021/03/16 03:34:11;;;;;;;11.50;5.60;;;4.60;66.10;;;;;;4991338;28;20410;-70
2021/03/16 03:36:39;;;;;;;9.83;6.00;;;4.60;66.40;;;;;;4992606;28;20030;-70
2021/03/16 03:39:14;;;;;;;9.90;5.27;;;4.60;66.90;;;;;;4992686;28;20026;-71
2021/03/16 03:41:40;;;;;;;6.73;4.50;;;4.60;66.50;;;;;;4993653;28;20116;-70
2021/03/16 03:44:09;;;;;;;6.83;4.63;;;4.70;67.10;;;;;;4992703;28;20345;-72
2021/03/16 03:46:37;;;;;;;11.80;5.40;;;4.70;66.70;;;;;;4994074;28;20065;-70
2021/03/16 03:49:04;;;;;;;8.17;4.70;;;4.70;66.60;;;;;;4992865;28;20038;-80
2021/03/16 03:51:31;;;;;;;8.00;5.53;;;4.70;66.60;;;;;;4994106;28;20026;-70
2021/03/16 03:54:00;;;;;;;10.27;5.40;;;4.70;66.80;;;;;;4993935;28;20392;-69
2021/03/16 03:56:28;;;;;;;7.70;5.10;;;4.70;66.80;;;;;;4993569;28;20030;-70
2021/03/16 03:58:57;;;;;;;10.77;5.90;;;4.70;66.80;;;;;;4993268;28;20022;-70
2021/03/16 04:01:23;;;;;;;8.23;5.73;;;4.70;66.70;;;;;;4993957;28;20034;-70
2021/03/16 04:03:49;;;;;;;8.47;5.30;;;4.70;66.60;;;;;;4993848;28;20057;-70
2021/03/16 04:06:14;;;;;;;8.40;4.83;;;4.70;66.50;;;;;;4994475;28;20034;-70
2021/03/16 04:08:41;;;;;;;8.90;5.03;;;4.70;66.70;;;;;;4994336;28;20046;-70
2021/03/16 04:11:07;;;;;;;10.27;5.37;;;4.70;67.00;;;;;;4993386;28;20072;-70
2021/03/16 04:13:33;;;;;;;9.83;5.90;;;4.70;66.80;;;;;;4993616;28;20030;-79
2021/03/16 04:16:01;;;;;;;10.07;5.63;;;4.60;66.40;;;;;;4993546;28;20094;-70
2021/03/16 04:18:27;;;;;;;13.70;7.17;;;4.60;66.00;;;;;;4993023;28;20185;-79
2021/03/16 04:20:53;;;;;;;10.80;6.77;;;4.60;65.80;;;;;;4993724;28;20050;-70
2021/03/16 04:23:19;;;;;;;12.20;6.90;;;4.60;65.90;;;;;;4993566;28;20483;-70
2021/03/16 04:25:45;;;;;;;9.87;6.20;;;4.50;65.70;;;;;;4992984;28;20021;-70
2021/03/16 04:28:10;;;;;;;15.37;7.57;;;4.40;65.80;;;;;;4993224;28;20026;-70
2021/03/16 04:30:36;;;;;;;11.67;6.80;;;4.40;65.90;;;;;;4992864;28;20023;-70
2021/03/16 04:33:02;;;;;;;10.27;6.07;;;4.40;65.90;;;;;;4993026;28;20106;-70
2021/03/16 04:35:28;;;;;;;10.20;6.00;;;4.30;66.00;;;;;;4992546;28;20081;-70
2021/03/16 04:37:54;;;;;;;12.53;6.10;;;4.30;66.00;;;;;;4992364;28;20379;-69
2021/03/16 04:40:20;;;;;;;8.87;5.93;;;4.20;66.20;;;;;;4993277;28;20541;-70
2021/03/16 04:42:47;;;;;;;13.33;5.97;;;4.20;66.70;;;;;;4993296;28;20109;-70
2021/03/16 04:45:13;;;;;;;14.37;6.43;;;4.20;67.00;;;;;;4993962;28;20073;-70
2021/03/16 04:47:39;;;;;;;12.37;5.97;;;4.20;66.70;;;;;;4992121;28;20614;-69
2021/03/16 04:50:05;;;;;;;10.37;5.73;;;4.20;66.90;;;;;;4993216;28;20073;-70
2021/03/16 04:52:31;;;;;;;17.20;5.43;;;4.20;66.90;;;;;;4992965;28;20026;-70
2021/03/16 04:54:56;;;;;;;10.23;6.00;;;4.20;66.70;;;;;;4992574;28;20112;-70
2021/03/16 04:57:22;;;;;;;9.33;5.60;;;4.20;66.40;;;;;;4992743;28;20030;-70
2021/03/16 04:59:48;;;;;;;9.23;5.33;;;4.10;66.20;;;;;;4992849;28;20057;-70
2021/03/16 05:02:16;;;;;;;10.97;5.40;;;4.10;66.30;;;;;;4992574;28;20088;-70
2021/03/16 05:04:42;;;;;;;9.97;5.93;;;4.10;66.30;;;;;;4992710;28;20105;-79
2021/03/16 05:07:07;;;;;;;14.00;6.37;;;4.00;66.50;;;;;;4992654;28;20132;-70
2021/03/16 05:09:33;;;;;;;14.60;6.10;;;4.00;67.60;;;;;;4992631;28;20023;-70
2021/03/16 05:11:59;;;;;;;12.27;6.37;;;4.00;67.40;;;;;;4992600;28;20022;-69
2021/03/16 05:14:26;;;;;;;13.90;5.67;;;4.00;67.00;;;;;;4992390;28;20026;-70
2021/03/16 05:16:52;;;;;;;11.17;5.93;;;3.90;67.50;;;;;;4993295;28;20034;-70
2021/03/16 05:19:18;;;;;;;14.30;6.23;;;3.90;67.70;;;;;;4992076;28;20479;-70
2021/03/16 05:21:43;;;;;;;10.87;5.67;;;3.90;67.90;;;;;;4992563;28;20498;-79
2021/03/16 05:24:09;;;;;;;12.20;6.23;;;3.90;67.80;;;;;;4992983;28;20158;-70
2021/03/16 05:26:35;;;;;;;13.70;5.57;;;3.90;68.10;;;;;;4992314;28;20101;-70
2021/03/16 05:29:01;;;;;;;16.03;6.20;;;3.90;68.50;;;;;;4992343;28;20026;-77
2021/03/16 05:31:27;;;;;;;11.30;5.77;;;3.90;68.30;;;;;;4992698;28;20081;-70
2021/03/16 05:33:52;;;;;;;9.67;5.60;;;3.90;68.20;;;;;;4993121;28;20034;-71
2021/03/16 05:36:18;;;;;;;13.80;6.13;;;3.90;67.90;;;;;;4992071;28;20026;-71
2021/03/16 05:38:44;;;;;;;10.70;6.00;;;3.90;68.00;;;;;;4992047;28;20054;-70
2021/03/16 05:41:10;;;;;;;16.23;5.73;;;3.90;68.60;;;;;;4991862;28;20060;-71
2021/03/16 05:43:36;;;;;;;9.33;5.30;;;3.90;68.20;;;;;;4991633;28;20414;-71
2021/03/16 05:46:02;;;;;;;13.30;5.97;;;4.00;68.30;;;;;;4991584;28;20029;-70
2021/03/16 05:48:29;;;;;;;14.23;5.67;;;4.00;68.40;;;;;;4991420;28;20033;-79
2021/03/16 05:50:59;;;;;;;15.73;5.67;;;4.00;68.30;;;;;;4991680;28;20105;-72
2021/03/16 05:53:25;;;;;;;9.63;5.70;;;4.00;68.20;;;;;;4991795;28;20064;-71
2021/03/16 05:55:51;;;;;;;11.13;5.90;;;4.00;68.50;;;;;;4992425;28;20475;-71
2021/03/16 05:58:17;;;;;;;11.97;5.90;;;4.10;68.60;;;;;;4991516;28;20022;-72
2021/03/16 06:00:42;;;;;;;15.80;6.87;;;4.10;68.30;;;;;;4991967;28;20471;-71
2021/03/16 06:03:08;;;;;;;12.43;6.10;;;4.10;68.80;;;;;;4992515;28;20399;-81
2021/03/16 06:05:34;;;;;;;21.40;6.33;;;4.10;68.10;;;;;;4991960;28;20376;-71
2021/03/16 06:08:00;;;;;;;14.83;6.33;;;4.10;68.00;;;;;;4991813;28;20491;-70
2021/03/16 06:10:26;;;;;;;17.43;6.27;;;4.20;68.00;;;;;;4991753;28;20050;-71
2021/03/16 06:12:51;;;;;;;18.30;6.40;;;4.20;68.20;;;;;;4992251;28;20057;-69
2021/03/16 06:15:19;;;;;;;23.23;6.97;;;4.20;68.30;;;;;;4991588;28;20474;-69
2021/03/16 06:17:46;;;;;;;12.57;6.03;;;4.20;68.40;;;;;;4991295;28;20034;-71
2021/03/16 06:20:28;;;;;;;13.13;6.13;;;4.30;68.50;;;;;;4991900;28;20041;-77
2021/03/16 06:23:14;;;;;;;12.67;6.53;;;4.30;68.50;;;;;;4991844;28;20062;-69
2021/03/16 06:25:42;;;;;;;7.47;5.53;;;4.50;68.40;;;;;;4991490;28;20096;-69
2021/03/16 06:28:14;;;;;;;11.20;6.43;;;4.50;68.70;;;;;;4992442;28;20034;-68
2021/03/16 06:30:41;;;;;;;12.13;5.75;;;4.50;68.50;;;;;;4992461;28;20022;-69
2021/03/16 06:33:21;;;;;;;8.53;4.53;;;4.60;68.80;;;;;;4993093;28;20498;-79
2021/03/16 06:36:09;;;;;;;11.40;4.10;;;4.70;68.90;;;;;;4992161;28;20553;-71
2021/03/16 06:38:37;;;;;;;8.33;4.27;;;4.80;68.90;;;;;;4992674;28;20062;-80
2021/03/16 06:41:11;;;;;;;7.77;4.00;;;4.90;68.90;;;;;;4992612;28;20085;-71
2021/03/16 06:43:38;;;;;;;10.40;4.30;;;5.00;68.80;;;;;;4993036;28;20030;-71
2021/03/16 06:46:04;;;;;;;9.33;4.00;;;5.10;68.80;;;;;;4991885;28;20030;-71
2021/03/16 06:48:34;;;;;;;7.37;3.57;;;5.30;68.60;;;;;;4991068;28;20022;-71
2021/03/16 06:51:12;;;;;;;13.03;3.57;;;5.40;68.50;;;;;;4992854;28;20022;-71
2021/03/16 06:53:38;;;;;;;9.90;3.00;;;5.50;68.40;;;;;;4992158;28;20050;-72
2021/03/16 06:56:04;;;;;;;7.27;2.50;;;5.60;68.10;;;;;;4992230;28;20027;-71
2021/03/16 06:58:32;;;;;;;6.07;2.90;;;5.70;67.70;;;;;;4991290;28;20033;-78
2021/03/16 07:01:16;;;;;;;12.40;5.23;;;5.80;67.20;;;;;;4992183;28;20456;-71
2021/03/16 07:03:42;;;;;;;12.70;6.47;;;5.90;67.30;;;;;;4996210;28;20387;-82
2021/03/16 07:06:12;;;;;;;16.03;7.10;;;6.00;67.20;;;;;;4996161;28;20081;-71
2021/03/16 07:08:39;;;;;;;14.70;6.30;;;6.00;67.00;;;;;;4995471;28;20037;-71
2021/03/16 07:11:13;;;;;;;11.77;6.27;;;6.10;66.60;;;;;;4995182;28;20316;-70
2021/03/16 07:13:40;;;;;;;15.00;6.10;;;6.10;66.40;;;;;;4994734;28;20138;-71
2021/03/16 07:16:06;;;;;;;10.73;6.00;;;6.10;66.40;;;;;;4995886;28;20029;-71
2021/03/16 07:18:37;;;;;;;13.87;5.13;;;6.10;66.50;;;;;;4995460;28;20109;-71
2021/03/16 07:21:09;;;;;;;8.37;5.37;;;6.10;66.20;;;;;;4994595;28;20126;-71
2021/03/16 07:23:44;;;;;;;11.73;5.73;;;6.00;66.50;;;;;;4995940;28;20403;-70
2021/03/16 07:26:10;;;;;;;19.00;6.43;;;6.00;66.80;;;;;;4995577;28;20030;-73
2021/03/16 07:28:36;;;;;;;25.27;8.33;;;5.90;66.90;;;;;;4995861;28;20027;-70
2021/03/16 07:31:01;;;;;;;16.60;7.00;;;6.00;67.10;;;;;;4995661;28;20411;-76
2021/03/16 07:33:29;;;;;;;21.20;7.23;;;6.10;67.30;;;;;;4995356;28;20026;-72
2021/03/16 07:35:55;;;;;;;17.63;6.57;;;6.20;68.00;;;;;;4995323;28;20509;-73
2021/03/16 07:38:22;;;;;;;12.80;7.50;;;6.30;68.10;;;;;;4994740;28;20030;-72
2021/03/16 07:40:50;;;;;;;17.73;7.37;;;6.40;68.00;;;;;;4994126;28;20457;-71
2021/03/16 07:43:15;;;;;;;18.23;6.90;;;6.50;68.10;;;;;;4994236;28;20038;-71
2021/03/16 07:45:41;;;;;;;24.37;7.30;;;6.50;67.80;;;;;;4993942;28;20093;-71
2021/03/16 07:48:15;;;;;;;14.67;6.13;;;6.60;67.80;;;;;;4993918;28;20054;-71
2021/03/16 07:50:41;;;;;;;17.87;6.87;;;6.70;67.60;;;;;;4994054;28;20417;-72
2021/03/16 07:53:07;;;;;;;15.47;5.83;;;6.70;67.40;;;;;;4994206;28;20084;-69
2021/03/16 07:55:33;;;;;;;13.13;6.20;;;6.80;67.20;;;;;;4994721;28;20085;-69
2021/03/16 07:58:15;;;;;;;18.60;6.43;;;6.90;66.90;;;;;;4994649;28;20105;-72
2021/03/16 08:00:41;;;;;;;18.10;5.32;;;7.00;66.60;;;;;;4994941;28;20026;-70
2021/03/16 08:03:07;;;;;;;12.57;5.17;;;7.10;66.50;;;;;;4993876;28;20030;-69
2021/03/16 08:05:43;;;;;;;6.90;4.00;;;7.20;66.00;;;;;;4994817;28;20022;-67
2021/03/16 08:08:17;;;;;;;4.37;2.70;;;7.40;65.60;;;;;;4994050;28;20096;-71
2021/03/16 08:10:44;;;;;;;3.33;1.90;;;7.60;65.00;;;;;;4993545;28;20038;-70
2021/03/16 08:13:28;;;;;;;5.73;2.50;;;7.70;63.30;;;;;;4994978;28;20014;-71
2021/03/16 08:15:56;;;;;;;10.23;3.27;;;7.80;62.30;;;;;;4994958;28;20102;-71
2021/03/16 08:18:34;;;;;;;10.10;3.27;;;7.90;62.10;;;;;;4994811;28;20114;-71
2021/03/16 08:21:07;;;;;;;9.23;2.80;;;8.10;62.90;;;;;;4994663;28;20030;-68
2021/03/16 08:23:37;;;;;;;13.73;4.67;;;8.20;62.20;;;;;;4994911;28;20401;-68
2021/03/16 08:26:06;;;;;;;16.87;5.47;;;8.40;62.10;;;;;;4994797;28;20033;-69
2021/03/16 08:28:33;;;;;;;13.80;5.43;;;8.50;62.20;;;;;;4993856;28;20029;-69
2021/03/16 08:30:59;;;;;;;19.77;6.30;;;8.60;62.30;;;;;;4993414;28;20022;-67
2021/03/16 08:33:27;;;;;;;12.73;6.60;;;8.70;62.50;;;;;;4993976;28;20033;-68
2021/03/16 08:35:55;;;;;;;18.40;6.23;;;8.80;62.60;;;;;;4994953;28;20485;-68
2021/03/16 08:38:22;;;;;;;13.23;6.07;;;9.00;62.20;;;;;;4994461;28;20034;-70
2021/03/16 08:41:15;;;;;;;10.50;6.03;;;9.00;62.10;;;;;;4994638;28;20026;-69
2021/03/16 08:43:46;;;;;;;10.43;5.60;;;9.20;62.10;;;;;;4994640;28;20073;-70
2021/03/16 08:46:15;;;;;;;14.00;5.57;;;9.30;62.00;;;;;;4994333;28;20482;-69
2021/03/16 08:48:43;;;;;;;12.27;5.77;;;9.40;61.60;;;;;;4994454;28;20038;-68
2021/03/16 08:51:11;;;;;;;11.13;5.23;;;9.50;61.50;;;;;;4994190;28;20037;-69
2021/03/16 08:53:37;;;;;;;11.47;4.40;;;9.60;61.40;;;;;;4994308;28;20105;-69
2021/03/16 08:56:03;;;;;;;11.93;4.03;;;9.70;61.00;;;;;;4994439;28;20042;-69
2021/03/16 08:58:29;;;;;;;8.47;3.30;;;9.80;59.70;;;;;;4994651;28;20030;-69
2021/03/16 09:00:55;;;;;;;14.83;3.83;;;9.90;59.20;;;;;;4994262;28;20018;-69
2021/03/16 09:03:41;;;;;;;7.70;3.40;;;10.00;59.20;;;;;;4994615;28;20049;-69
2021/03/16 09:06:17;;;;;;;6.03;2.23;;;10.10;57.70;;;;;;4994215;28;20026;-69
2021/03/16 09:08:53;;;;;;;9.27;1.90;;;10.20;55.70;;;;;;4994063;28;20394;-70
2021/03/16 09:11:37;;;;;;;6.73;2.43;;;10.30;54.40;;;;;;4993124;28;20027;-70
2021/03/16 09:14:22;;;;;;;5.27;1.93;;;10.40;53.40;;;;;;4992053;28;20049;-70
2021/03/16 09:16:56;;;;;;;4.33;1.80;;;10.50;52.60;;;;;;4991568;28;20113;-69
2021/03/16 09:19:26;;;;;;;3.17;1.15;;;10.60;52.00;;;;;;4991612;28;20065;-70
2021/03/16 09:22:00;;;;;;;1.95;1.30;;;10.70;49.50;;;;;;4991063;28;20108;-70
2021/03/16 09:24:31;;;;;;;1.75;1.08;;;10.80;44.90;;;;;;4992915;28;20489;-69
2021/03/16 09:27:03;;;;;;;2.00;1.10;;;10.80;45.70;;;;;;4993980;28;20033;-69
2021/03/16 09:29:32;;;;;;;2.40;1.10;;;10.90;47.00;;;;;;4993982;28;20058;-69
2021/03/16 09:32:00;;;;;;;3.97;0.85;;;11.00;46.60;;;;;;4993937;28;20038;-73
2021/03/16 09:34:27;;;;;;;1.60;1.08;;;11.10;46.60;;;;;;4993183;28;20034;-69
2021/03/16 09:37:05;;;;;;;2.85;1.27;;;11.30;45.50;;;;;;4992626;28;20395;-69
2021/03/16 09:39:31;;;;;;;3.55;1.27;;;11.30;44.70;;;;;;4992544;28;20115;-69
2021/03/16 09:42:00;;;;;;;2.88;1.27;;;11.50;45.20;;;;;;4992213;28;20505;-69
2021/03/16 09:44:35;;;;;;;1.92;1.00;;;11.60;46.20;;;;;;4992321;28;20058;-69
2021/03/16 09:47:01;;;;;;;2.60;0.80;;;11.70;45.10;;;;;;4992370;28;20047;-69
2021/03/16 09:49:37;;;;;;;2.88;0.90;;;11.80;45.50;;;;;;4992433;28;20379;-69
2021/03/16 09:52:10;;;;;;;1.85;0.80;;;11.90;42.90;;;;;;4992634;28;20027;-69
2021/03/16 09:54:46;;;;;;;3.58;1.90;;;11.90;43.00;;;;;;4993734;28;20022;-69
2021/03/16 09:57:16;;;;;;;4.65;2.22;;;12.00;43.90;;;;;;4993448;28;20025;-69
2021/03/16 09:59:45;;;;;;;3.58;0.90;;;12.10;43.10;;;;;;4993101;28;20476;-69
2021/03/16 10:02:13;;;;;;;1.55;0.88;;;12.20;43.10;;;;;;4993167;28;20096;-69
2021/03/16 10:04:49;;;;;;;1.80;0.80;;;12.30;41.10;;;;;;4992297;28;20023;-70
2021/03/16 10:07:25;;;;;;;2.10;0.85;;;12.50;41.20;;;;;;4993021;28;20036;-69
2021/03/16 10:09:51;;;;;;;4.18;1.80;;;12.60;37.80;;;;;;4993645;28;20476;-68
2021/03/16 10:12:22;;;;;;;1.45;0.60;;;12.70;40.50;;;;;;4993559;28;20029;-79
2021/03/16 10:14:49;;;;;;;0.73;0.45;;;12.70;40.10;;;;;;4993334;28;20034;-69
2021/03/16 10:17:29;;;;;;;1.75;0.47;;;12.80;38.80;;;;;;4993534;28;20026;-68
2021/03/16 10:19:59;;;;;;;8.10;4.00;;;12.90;38.50;;;;;;4993412;28;20050;-68
2021/03/16 10:22:33;;;;;;;0.88;0.50;;;13.00;40.20;;;;;;4993539;28;20046;-68
2021/03/16 10:25:01;;;;;;;0.73;0.32;;;13.20;36.40;;;;;;4993578;28;20107;-68
2021/03/16 10:27:29;;;;;;;0.20;0.20;;;13.20;33.10;;;;;;4993578;28;20030;-69
2021/03/16 10:29:56;;;;;;;2.35;0.30;;;13.30;31.40;;;;;;4993556;28;20142;-68
2021/03/16 10:32:22;;;;;;;1.10;0.40;;;13.40;33.70;;;;;;4993382;28;20034;-68
2021/03/16 10:34:51;;;;;;;0.82;0.52;;;13.40;32.50;;;;;;4993523;28;20034;-68
2021/03/16 10:37:22;;;;;;;1.38;0.80;;;13.50;32.10;;;;;;4996304;28;20037;-68
2021/03/16 10:39:48;;;;;;;0.70;0.40;;;13.60;32.30;;;;;;4997250;28;20022;-68
2021/03/16 10:42:14;;;;;;;1.85;0.32;;;13.70;33.60;;;;;;4997370;28;20069;-69
2021/03/16 10:44:40;;;;;;;0.38;0.30;;;13.80;32.40;;;;;;4997016;28;20476;-68
2021/03/16 10:47:06;;;;;;;0.40;0.30;;;13.90;30.90;;;;;;4996834;28;20054;-68
2021/03/16 10:49:33;;;;;;;1.67;0.70;;;14.00;33.20;;;;;;4996830;28;20030;-69
2021/03/16 10:51:59;;;;;;;2.80;0.50;;;14.10;31.50;;;;;;4997033;28;20081;-78
2021/03/16 10:54:25;;;;;;;1.05;0.30;;;14.10;31.60;;;;;;4996828;28;20022;-68
2021/03/16 10:56:54;;;;;;;1.10;0.60;;;14.20;30.40;;;;;;4996854;28;20041;-68
2021/03/16 10:59:19;;;;;;;1.17;0.47;;;14.20;31.50;;;;;;4996592;28;20076;-68
2021/03/16 11:01:45;;;;;;;1.00;0.50;;;14.30;30.90;;;;;;4996907;28;20518;-68
2021/03/16 11:04:11;;;;;;;1.10;0.77;;;14.40;31.10;;;;;;4996386;28;20030;-65
2021/03/16 11:06:36;;;;;;;2.33;1.30;;;14.50;30.20;;;;;;4996387;28;20026;-66
2021/03/16 11:09:03;;;;;;;2.83;1.60;;;14.60;30.10;;;;;;4996337;28;20076;-66
2021/03/16 11:11:29;;;;;;;3.40;1.30;;;14.50;30.40;;;;;;4996618;28;20479;-65
2021/03/16 11:13:55;;;;;;;0.55;0.43;;;14.60;30.60;;;;;;4997437;28;20154;-66
2021/03/16 11:16:21;;;;;;;1.52;0.70;;;14.60;30.10;;;;;;4996328;28;20022;-66
2021/03/16 11:18:46;;;;;;;1.80;0.73;;;14.70;30.40;;;;;;4994921;28;20037;-66
2021/03/16 11:21:12;;;;;;;0.30;0.30;;;14.80;31.20;;;;;;4996481;28;20101;-66
2021/03/16 11:23:37;;;;;;;1.25;0.60;;;14.90;30.60;;;;;;4996267;28;20125;-66
2021/03/16 11:26:03;;;;;;;0.75;0.38;;;14.90;31.40;;;;;;4996134;28;20153;-66
2021/03/16 11:28:29;;;;;;;0.63;0.35;;;15.00;32.40;;;;;;4996707;28;20022;-65
2021/03/16 11:30:54;;;;;;;1.63;0.20;;;15.10;31.00;;;;;;4996307;28;20023;-66
2021/03/16 11:33:20;;;;;;;0.60;0.30;;;15.10;29.80;;;;;;4996222;28;20081;-66
2021/03/16 11:35:46;;;;;;;0.35;0.20;;;15.00;28.80;;;;;;4995849;28;20022;-65
2021/03/16 11:38:11;;;;;;;0.60;0.30;;;14.90;28.40;;;;;;4996124;28;20019;-66
2021/03/16 11:40:37;;;;;;;0.90;0.40;;;14.80;27.40;;;;;;4995700;28;20034;-66
2021/03/16 11:43:03;;;;;;;1.17;0.55;;;14.60;28.90;;;;;;4995692;28;20034;-66
2021/03/16 11:45:28;;;;;;;0.30;0.22;;;14.50;28.80;;;;;;4995625;28;20054;-66
2021/03/16 11:47:54;;;;;;;0.40;0.20;;;14.40;28.40;;;;;;4994889;28;20051;-66
2021/03/16 11:50:20;;;;;;;1.08;0.40;;;14.40;29.30;;;;;;4995814;28;20061;-67
2021/03/16 11:52:46;;;;;;;0.52;0.30;;;14.50;29.00;;;;;;4995624;28;20026;-67
2021/03/16 11:55:12;;;;;;;1.17;0.40;;;14.50;28.60;;;;;;4993029;28;20022;-66
2021/03/16 11:57:38;;;;;;;1.95;0.45;;;14.60;29.00;;;;;;4993435;28;20121;-67
2021/03/16 12:00:05;;;;;;;0.60;0.30;;;14.70;27.90;;;;;;4993937;28;20529;-66
2021/03/16 12:02:32;;;;;;;0.73;0.40;;;14.80;29.00;;;;;;4994045;28;20038;-67
2021/03/16 12:04:58;;;;;;;1.92;0.47;;;14.80;29.60;;;;;;4994333;28;20022;-67
2021/03/16 12:07:24;;;;;;;0.22;0.20;;;14.80;28.50;;;;;;4994007;28;20113;-67
2021/03/16 12:09:50;;;;;;;0.73;0.30;;;14.70;28.50;;;;;;4994113;28;20218;-67
2021/03/16 12:12:15;;;;;;;0.32;0.20;;;14.60;29.70;;;;;;4994208;28;20042;-67
2021/03/16 12:14:41;;;;;;;3.78;0.60;;;14.60;29.50;;;;;;4993953;28;20131;-67
2021/03/16 12:17:11;;;;;;;0.50;0.40;;;14.70;28.50;;;;;;4993821;28;20018;-67
2021/03/16 12:19:37;;;;;;;1.08;0.30;;;14.80;27.80;;;;;;4993874;28;20033;-67
2021/03/16 12:22:03;;;;;;;0.85;0.40;;;14.90;29.20;;;;;;4993559;28;20038;-67
2021/03/16 12:24:29;;;;;;;0.70;0.47;;;14.90;28.80;;;;;;4993863;28;20131;-66
2021/03/16 12:26:55;;;;;;;2.47;0.38;;;14.90;27.40;;;;;;4993543;28;20490;-68
2021/03/16 12:29:20;;;;;;;1.67;0.40;;;14.90;28.10;;;;;;4993500;28;20110;-67
2021/03/16 12:31:46;;;;;;;1.13;0.32;;;14.70;28.00;;;;;;4993451;28;20097;-67
2021/03/16 12:34:12;;;;;;;1.88;0.40;;;14.60;28.20;;;;;;4993491;28;20029;-68
2021/03/16 12:36:37;;;;;;;3.55;1.70;;;14.60;28.60;;;;;;4993633;28;20403;-67
2021/03/16 12:39:04;;;;;;;4.05;1.73;;;14.50;28.70;;;;;;4993317;28;20356;-68
2021/03/16 12:41:30;;;;;;;7.10;1.45;;;14.40;28.50;;;;;;4993190;28;20451;-67
2021/03/16 12:43:56;;;;;;;0.47;0.40;;;14.40;28.60;;;;;;4993534;28;20033;-67
2021/03/16 12:46:21;;;;;;;1.20;0.20;;;14.40;28.90;;;;;;4993192;28;20038;-67
2021/03/16 12:48:50;;;;;;;0.28;0.10;;;14.50;29.00;;;;;;4993177;28;20118;-67
2021/03/16 12:51:15;;;;;;;0.82;0.25;;;14.60;29.00;;;;;;4993146;28;20389;-67